Time,TemperatureF,DewpointF,PressureIn,WindDirection,WindDirectionDegrees,WindSpeedMPH,WindSpeedGustMPH,Humidity,HourlyPrecipIn,Conditions,Clouds,dailyrainin,SoftwareType,DateUTC
2013-08-13 00:01:00,68.9,52.6,30.01,NW,315,0.0,0.0,56,0.00,,,0.00,WUHU21623XXSP,2013-08-13 07:01:00,
2013-08-13 00:06:00,69.1,52.8,30.01,NW,315,0.0,0.0,56,0.00,,,0.00,WUHU21623XXSP,2013-08-13 07:06:00,
2013-08-13 00:11:00,69.1,52.8,30.01,NNW,337,0.0,0.0,56,0.00,,,0.00,WUHU21623XXSP,2013-08-13 07:11:00,
2013-08-13 00:16:00,69.1,52.8,30.01,NNW,337,0.0,0.0,56,0.00,,,0.00,WUHU21623XXSP,2013-08-13 07:16:00,
2013-08-13 00:21:00,68.9,52.6,30.01,NNW,337,0.0,0.0,56,0.00,,,0.00,WUHU21623XXSP,2013-08-13 07:21:00,
2013-08-13 00:26:00,68.7,52.4,30.01,NNW,337,0.0,0.0,56,0.00,,,0.00,WUHU21623XXSP,2013-08-13 07:26:00,
2013-08-13 00:31:00,68.5,52.2,30.01,NNW,337,0.0,0.0,56,0.00,,,0.00,WUHU21623XXSP,2013-08-13 07:31:00,
2013-08-13 00:36:00,68.2,51.9,30.01,NNW,337,0.0,0.0,56,0.00,,,0.00,WUHU21623XXSP,2013-08-13 07:36:00,
2013-08-13 00:41:00,67.8,52.1,30.01,NW,315,0.0,0.0,57,0.00,,,0.00,WUHU21623XXSP,2013-08-13 07:41:00,
2013-08-13 00:46:00,67.8,52.1,30.01,NW,315,0.0,0.0,57,0.00,,,0.00,WUHU21623XXSP,2013-08-13 07:46:00,
2013-08-13 00:51:00,68.0,52.2,30.01,NW,315,0.0,0.0,57,0.00,,,0.00,WUHU21623XXSP,2013-08-13 07:51:00,
2013-08-13 00:56:00,68.2,51.9,30.01,NW,315,0.0,0.0,56,0.00,,,0.00,WUHU21623XXSP,2013-08-13 07:56:00,
2013-08-13 01:01:00,68.0,51.7,30.01,NW,315,0.0,0.0,56,0.00,,,0.00,WUHU21623XXSP,2013-08-13 08:01:00,
2013-08-13 01:06:00,68.0,51.7,30.01,NW,315,0.0,0.0,56,0.00,,,0.00,WUHU21623XXSP,2013-08-13 08:06:00,
2013-08-13 01:11:00,66.7,51.0,30.02,NW,315,0.0,0.0,57,0.00,,,0.00,WUHU21623XXSP,2013-08-13 08:11:00,
2013-08-13 01:16:00,66.6,51.4,30.01,NW,315,0.0,0.0,58,0.00,,,0.00,WUHU21623XXSP,2013-08-13 08:16:00,
2013-08-13 01:21:00,66.0,50.8,30.01,NW,315,0.0,0.0,58,0.00,,,0.00,WUHU21623XXSP,2013-08-13 08:21:00,
2013-08-13 01:26:00,66.0,50.8,30.01,NW,315,0.0,0.0,58,0.00,,,0.00,WUHU21623XXSP,2013-08-13 08:26:00,
2013-08-13 01:31:00,65.8,51.1,30.02,NW,315,0.0,0.0,59,0.00,,,0.00,WUHU21623XXSP,2013-08-13 08:31:00,
2013-08-13 01:36:00,66.0,51.3,30.02,NW,315,0.0,0.0,59,0.00,,,0.00,WUHU21623XXSP,2013-08-13 08:36:00,
2013-08-13 01:41:00,66.4,51.7,30.02,NW,315,0.0,0.0,59,0.00,,,0.00,WUHU21623XXSP,2013-08-13 08:41:00,
2013-08-13 01:46:00,66.9,51.7,30.02,NW,315,0.0,0.0,58,0.00,,,0.00,WUHU21623XXSP,2013-08-13 08:46:00,
2013-08-13 01:51:00,66.7,51.5,30.02,NW,315,0.0,0.0,58,0.00,,,0.00,WUHU21623XXSP,2013-08-13 08:51:00,
2013-08-13 01:56:00,66.6,51.4,30.02,NW,315,0.0,0.0,58,0.00,,,0.00,WUHU21623XXSP,2013-08-13 08:56:00,
2013-08-13 02:01:00,66.4,51.2,30.02,NW,315,0.0,0.0,58,0.00,,,0.00,WUHU21623XXSP,2013-08-13 09:01:00,
2013-08-13 02:06:00,66.0,51.3,30.02,NW,315,0.0,0.0,59,0.00,,,0.00,WUHU21623XXSP,2013-08-13 09:06:00,
2013-08-13 02:11:00,65.3,50.7,30.02,NW,315,0.0,0.0,59,0.00,,,0.00,WUHU21623XXSP,2013-08-13 09:11:00,
2013-08-13 02:16:00,65.1,51.8,30.02,NW,315,0.0,0.0,62,0.00,,,0.00,WUHU21623XXSP,2013-08-13 09:16:00,
2013-08-13 02:21:00,64.0,51.2,30.02,NW,315,0.0,0.0,63,0.00,,,0.00,WUHU21623XXSP,2013-08-13 09:21:00,
2013-08-13 02:26:00,63.3,51.0,30.02,NW,315,0.0,0.0,64,0.00,,,0.00,WUHU21623XXSP,2013-08-13 09:26:00,
2013-08-13 02:31:00,62.8,50.9,30.02,NW,315,0.0,0.0,65,0.00,,,0.00,WUHU21623XXSP,2013-08-13 09:31:00,
2013-08-13 02:36:00,62.1,50.7,30.02,NW,315,0.0,0.0,66,0.00,,,0.00,WUHU21623XXSP,2013-08-13 09:36:00,
2013-08-13 02:41:00,61.7,50.3,30.02,NW,315,0.0,0.0,66,0.00,,,0.00,WUHU21623XXSP,2013-08-13 09:41:00,
2013-08-13 02:46:00,61.3,49.9,30.02,NW,315,0.0,0.0,66,0.00,,,0.00,WUHU21623XXSP,2013-08-13 09:46:00,
2013-08-13 02:51:00,61.0,49.6,30.02,NW,315,0.0,0.0,66,0.00,,,0.00,WUHU21623XXSP,2013-08-13 09:51:00,
2013-08-13 02:56:00,60.6,49.2,30.03,NW,315,0.0,0.0,66,0.00,,,0.00,WUHU21623XXSP,2013-08-13 09:56:00,
2013-08-13 03:01:00,60.6,49.2,30.03,NW,315,0.0,0.0,66,0.00,,,0.00,WUHU21623XXSP,2013-08-13 10:01:00,
2013-08-13 03:06:00,60.4,49.5,30.02,NW,315,0.0,0.0,67,0.00,,,0.00,WUHU21623XXSP,2013-08-13 10:06:00,
2013-08-13 03:11:00,59.9,49.0,30.02,NW,315,0.0,0.0,67,0.00,,,0.00,WUHU21623XXSP,2013-08-13 10:11:00,
2013-08-13 03:16:00,59.5,49.0,30.03,NW,315,0.0,0.0,68,0.00,,,0.00,WUHU21623XXSP,2013-08-13 10:16:00,
2013-08-13 03:21:00,59.4,49.7,30.03,NW,315,0.0,0.0,70,0.00,,,0.00,WUHU21623XXSP,2013-08-13 10:21:00,
2013-08-13 03:26:00,59.4,50.4,30.03,NW,315,0.0,0.0,72,0.00,,,0.00,WUHU21623XXSP,2013-08-13 10:26:00,
2013-08-13 03:31:00,59.4,50.8,30.03,NW,315,0.0,0.0,73,0.00,,,0.00,WUHU21623XXSP,2013-08-13 10:31:00,
2013-08-13 03:36:00,58.8,50.9,30.03,WNW,292,0.0,0.0,75,0.00,,,0.00,WUHU21623XXSP,2013-08-13 10:36:00,
2013-08-13 03:41:00,58.8,50.9,30.03,West,270,0.0,0.0,75,0.00,,,0.00,WUHU21623XXSP,2013-08-13 10:41:00,
2013-08-13 03:46:00,58.5,50.6,30.04,West,270,0.0,0.0,75,0.00,,,0.00,WUHU21623XXSP,2013-08-13 10:46:00,
2013-08-13 03:51:00,58.1,50.2,30.04,West,270,0.0,0.0,75,0.00,,,0.00,WUHU21623XXSP,2013-08-13 10:51:00,
2013-08-13 03:56:00,58.1,49.9,30.04,West,270,0.0,0.0,74,0.00,,,0.00,WUHU21623XXSP,2013-08-13 10:56:00,
2013-08-13 04:01:00,58.3,50.1,30.04,West,270,0.0,0.0,74,0.00,,,0.00,WUHU21623XXSP,2013-08-13 11:01:00,
2013-08-13 04:06:00,58.8,50.2,30.03,West,270,0.0,0.0,73,0.00,,,0.00,WUHU21623XXSP,2013-08-13 11:06:00,
2013-08-13 04:11:00,58.8,49.8,30.03,West,270,0.0,0.0,72,0.00,,,0.00,WUHU21623XXSP,2013-08-13 11:11:00,
2013-08-13 04:16:00,59.4,50.0,30.03,West,270,0.0,0.0,71,0.00,,,0.00,WUHU21623XXSP,2013-08-13 11:16:00,
2013-08-13 04:21:00,59.4,50.0,30.03,West,270,0.0,0.0,71,0.00,,,0.00,WUHU21623XXSP,2013-08-13 11:21:00,
2013-08-13 04:26:00,59.4,50.0,30.03,West,270,0.0,0.0,71,0.00,,,0.00,WUHU21623XXSP,2013-08-13 11:26:00,
2013-08-13 04:31:00,59.5,50.5,30.03,WSW,247,0.0,5.8,72,0.00,,,0.00,WUHU21623XXSP,2013-08-13 11:31:00,
2013-08-13 04:36:00,59.5,51.2,30.04,WSW,247,0.0,5.8,74,0.00,,,0.00,WUHU21623XXSP,2013-08-13 11:36:00,
2013-08-13 04:41:00,59.2,51.0,30.04,WSW,247,0.0,0.0,74,0.00,,,0.00,WUHU21623XXSP,2013-08-13 11:41:00,
2013-08-13 04:46:00,59.0,50.8,30.04,WSW,247,0.0,0.0,74,0.00,,,0.00,WUHU21623XXSP,2013-08-13 11:46:00,
2013-08-13 04:51:00,58.8,50.9,30.04,WSW,247,0.0,0.0,75,0.00,,,0.00,WUHU21623XXSP,2013-08-13 11:51:00,
2013-08-13 04:56:00,58.3,50.4,30.03,WSW,247,0.0,0.0,75,0.00,,,0.00,WUHU21623XXSP,2013-08-13 11:56:00,
2013-08-13 05:01:00,58.3,50.4,30.04,WSW,247,0.0,0.0,75,0.00,,,0.00,WUHU21623XXSP,2013-08-13 12:01:00,
2013-08-13 05:06:00,58.3,50.1,30.04,WSW,247,0.0,0.0,74,0.00,,,0.00,WUHU21623XXSP,2013-08-13 12:06:00,
2013-08-13 05:11:00,57.9,49.7,30.04,WSW,247,0.0,0.0,74,0.00,,,0.00,WUHU21623XXSP,2013-08-13 12:11:00,
2013-08-13 05:16:00,57.7,49.5,30.04,WSW,247,0.0,0.0,74,0.00,,,0.00,WUHU21623XXSP,2013-08-13 12:16:00,
2013-08-13 05:21:00,57.7,49.5,30.04,WSW,247,0.0,0.0,74,0.00,,,0.00,WUHU21623XXSP,2013-08-13 12:21:00,
2013-08-13 05:26:00,57.9,50.0,30.04,WSW,247,0.0,0.0,75,0.00,,,0.00,WUHU21623XXSP,2013-08-13 12:26:00,
2013-08-13 05:31:00,58.5,50.3,30.04,WSW,247,0.0,0.0,74,0.00,,,0.00,WUHU21623XXSP,2013-08-13 12:31:00,
2013-08-13 05:36:00,58.6,50.4,30.04,WSW,247,0.0,0.0,74,0.00,,,0.00,WUHU21623XXSP,2013-08-13 12:36:00,
2013-08-13 05:41:00,58.6,50.4,30.04,WSW,247,0.0,0.0,74,0.00,,,0.00,WUHU21623XXSP,2013-08-13 12:41:00,
2013-08-13 05:46:00,58.3,50.1,30.05,WSW,247,0.0,0.0,74,0.00,,,0.00,WUHU21623XXSP,2013-08-13 12:46:00,
2013-08-13 05:51:00,58.6,50.4,30.05,WSW,247,0.0,0.0,74,0.00,,,0.00,WUHU21623XXSP,2013-08-13 12:51:00,
2013-08-13 05:56:00,58.5,50.3,30.05,WSW,247,0.0,0.0,74,0.00,,,0.00,WUHU21623XXSP,2013-08-13 12:56:00,
2013-08-13 06:01:00,58.8,50.6,30.05,WSW,247,0.0,0.0,74,0.00,,,0.00,WUHU21623XXSP,2013-08-13 13:01:00,
2013-08-13 06:06:00,59.5,50.9,30.05,WSW,247,0.0,0.0,73,0.00,,,0.00,WUHU21623XXSP,2013-08-13 13:06:00,
2013-08-13 06:11:00,59.9,51.3,30.05,WSW,247,0.0,0.0,73,0.00,,,0.00,WUHU21623XXSP,2013-08-13 13:11:00,
2013-08-13 06:16:00,59.7,50.7,30.06,WSW,247,0.0,0.0,72,0.00,,,0.00,WUHU21623XXSP,2013-08-13 13:16:00,
2013-08-13 06:21:00,59.7,51.1,30.06,WSW,247,0.0,0.0,73,0.00,,,0.00,WUHU21623XXSP,2013-08-13 13:21:00,
2013-08-13 06:26:00,59.7,51.1,30.06,WSW,247,0.0,0.0,73,0.00,,,0.00,WUHU21623XXSP,2013-08-13 13:26:00,
2013-08-13 06:31:00,60.1,51.1,30.06,WSW,247,0.0,0.0,72,0.00,,,0.00,WUHU21623XXSP,2013-08-13 13:31:00,
2013-08-13 06:36:00,59.7,51.1,30.07,WSW,247,0.0,0.0,73,0.00,,,0.00,WUHU21623XXSP,2013-08-13 13:36:00,
2013-08-13 06:41:00,59.7,51.1,30.06,WSW,247,0.0,0.0,73,0.00,,,0.00,WUHU21623XXSP,2013-08-13 13:41:00,
2013-08-13 06:46:00,59.7,51.1,30.07,WSW,247,0.0,0.0,73,0.00,,,0.00,WUHU21623XXSP,2013-08-13 13:46:00,
2013-08-13 06:51:00,59.9,51.6,30.07,WSW,247,0.0,0.0,74,0.00,,,0.00,WUHU21623XXSP,2013-08-13 13:51:00,
2013-08-13 06:56:00,60.1,51.8,30.07,WSW,247,0.0,0.0,74,0.00,,,0.00,WUHU21623XXSP,2013-08-13 13:56:00,
2013-08-13 07:01:00,60.3,52.4,30.07,WSW,247,0.0,0.0,75,0.00,,,0.00,WUHU21623XXSP,2013-08-13 14:01:00,
2013-08-13 07:06:00,60.6,52.7,30.07,WSW,247,0.0,0.0,75,0.00,,,0.00,WUHU21623XXSP,2013-08-13 14:06:00,
2013-08-13 07:11:00,61.2,53.2,30.07,WSW,247,0.0,0.0,75,0.00,,,0.00,WUHU21623XXSP,2013-08-13 14:11:00,
2013-08-13 07:16:00,61.5,53.9,30.07,WSW,247,0.0,0.0,76,0.00,,,0.00,WUHU21623XXSP,2013-08-13 14:16:00,
2013-08-13 07:21:00,61.2,53.2,30.07,WSW,247,0.0,0.0,75,0.00,,,0.00,WUHU21623XXSP,2013-08-13 14:21:00,
2013-08-13 07:26:00,62.4,54.8,30.07,WSW,247,0.0,0.0,76,0.00,,,0.00,WUHU21623XXSP,2013-08-13 14:26:00,
2013-08-13 07:31:00,64.9,56.5,30.07,WSW,247,0.0,0.0,74,0.00,,,0.00,WUHU21623XXSP,2013-08-13 14:31:00,
2013-08-13 07:36:00,70.0,59.1,30.07,WSW,247,0.0,0.0,68,0.00,,,0.00,WUHU21623XXSP,2013-08-13 14:36:00,
2013-08-13 07:41:00,72.7,59.9,30.07,WSW,247,0.0,0.0,64,0.00,,,0.00,WUHU21623XXSP,2013-08-13 14:41:00,
2013-08-13 07:46:00,74.5,60.3,30.08,WSW,247,0.0,0.0,61,0.00,,,0.00,WUHU21623XXSP,2013-08-13 14:46:00,
2013-08-13 07:51:00,76.3,60.5,30.08,WSW,247,0.0,0.0,58,0.00,,,0.00,WUHU21623XXSP,2013-08-13 14:51:00,
2013-08-13 07:56:00,76.8,60.5,30.08,WSW,247,0.0,0.0,57,0.00,,,0.00,WUHU21623XXSP,2013-08-13 14:56:00,
2013-08-13 08:01:00,80.2,62.7,30.08,WSW,247,0.0,0.0,55,0.00,,,0.00,WUHU21623XXSP,2013-08-13 15:01:00,
2013-08-13 08:06:00,80.4,61.8,30.08,WSW,247,0.0,0.0,53,0.00,,,0.00,WUHU21623XXSP,2013-08-13 15:06:00,
2013-08-13 08:11:00,79.0,61.0,30.09,WSW,247,0.0,0.0,54,0.00,,,0.00,WUHU21623XXSP,2013-08-13 15:11:00,
2013-08-13 08:16:00,77.2,59.8,30.09,WSW,247,0.0,0.0,55,0.00,,,0.00,WUHU21623XXSP,2013-08-13 15:16:00,
2013-08-13 08:21:00,76.6,59.8,30.09,WSW,247,0.0,0.0,56,0.00,,,0.00,WUHU21623XXSP,2013-08-13 15:21:00,
2013-08-13 08:26:00,76.8,60.0,30.09,WSW,247,0.0,0.0,56,0.00,,,0.00,WUHU21623XXSP,2013-08-13 15:26:00,
2013-08-13 08:31:00,79.0,62.1,30.09,WSW,247,0.0,0.0,56,0.00,,,0.00,WUHU21623XXSP,2013-08-13 15:31:00,
2013-08-13 08:36:00,81.3,63.7,30.09,WSW,247,0.0,0.0,55,0.00,,,0.00,WUHU21623XXSP,2013-08-13 15:36:00,
2013-08-13 08:41:00,82.6,64.4,30.09,WSW,247,0.0,0.0,54,0.00,,,0.00,WUHU21623XXSP,2013-08-13 15:41:00,
2013-08-13 08:46:00,85.3,64.0,30.09,SSW,202,0.0,0.0,49,0.00,,,0.00,WUHU21623XXSP,2013-08-13 15:46:00,
2013-08-13 08:51:00,84.0,62.2,30.09,SW,225,0.0,0.0,48,0.00,,,0.00,WUHU21623XXSP,2013-08-13 15:51:00,
2013-08-13 08:56:00,82.2,61.1,30.09,SW,225,0.0,0.0,49,0.00,,,0.00,WUHU21623XXSP,2013-08-13 15:56:00,
2013-08-13 09:01:00,81.5,61.1,30.09,SW,225,0.0,0.0,50,0.00,,,0.00,WUHU21623XXSP,2013-08-13 16:01:00,
2013-08-13 09:06:00,82.2,61.1,30.09,SSW,202,0.0,0.0,49,0.00,,,0.00,WUHU21623XXSP,2013-08-13 16:06:00,
2013-08-13 09:10:00,81.3,60.3,30.09,SSW,202,0.0,0.0,49,0.00,,,0.00,WUHU21623XXSP,2013-08-13 16:10:00,
2013-08-13 09:11:00,81.3,60.3,30.09,SSW,202,0.0,0.0,49,0.00,,,0.00,WUHU21623XXSP,2013-08-13 16:11:00,
2013-08-13 09:16:00,83.1,61.4,30.10,SW,225,6.0,6.0,48,0.00,,,0.00,WUHU21623XXSP,2013-08-13 16:16:00,
2013-08-13 09:21:00,83.5,60.5,30.09,SW,225,6.0,6.0,46,0.00,,,0.00,WUHU21623XXSP,2013-08-13 16:21:00,
2013-08-13 09:26:00,83.5,61.7,30.09,South,180,0.0,6.0,48,0.00,,,0.00,WUHU21623XXSP,2013-08-13 16:26:00,
2013-08-13 09:31:00,82.9,61.2,30.09,South,180,7.4,7.4,48,0.00,,,0.00,WUHU21623XXSP,2013-08-13 16:31:00,
2013-08-13 09:36:00,81.7,60.1,30.09,SSW,202,3.4,7.4,48,0.00,,,0.00,WUHU21623XXSP,2013-08-13 16:36:00,
2013-08-13 09:41:00,82.6,60.9,30.09,WSW,247,0.0,3.4,48,0.00,,,0.00,WUHU21623XXSP,2013-08-13 16:41:00,
2013-08-13 09:46:00,82.9,60.6,30.10,SW,225,0.0,3.4,47,0.00,,,0.00,WUHU21623XXSP,2013-08-13 16:46:00,
2013-08-13 09:51:00,83.3,61.5,30.10,SW,225,0.0,0.0,48,0.00,,,0.00,WUHU21623XXSP,2013-08-13 16:51:00,
2013-08-13 09:56:00,84.6,62.7,30.09,WSW,247,0.0,0.0,48,0.00,,,0.00,WUHU21623XXSP,2013-08-13 16:56:00,
2013-08-13 10:01:00,86.9,63.6,30.10,South,180,0.0,0.0,46,0.00,,,0.00,WUHU21623XXSP,2013-08-13 17:01:00,
2013-08-13 10:06:00,85.8,61.9,30.10,South,180,0.0,0.9,45,0.00,,,0.00,WUHU21623XXSP,2013-08-13 17:06:00,
2013-08-13 10:12:00,84.4,61.3,30.10,South,180,0.0,0.9,46,0.00,,,0.00,WUHU21623XXSP,2013-08-13 17:12:00,
2013-08-13 10:17:00,84.6,61.5,30.10,SSE,157,0.0,0.0,46,0.00,,,0.00,WUHU21623XXSP,2013-08-13 17:17:00,
2013-08-13 10:22:00,85.3,62.1,30.10,SSE,157,0.0,0.0,46,0.00,,,0.00,WUHU21623XXSP,2013-08-13 17:22:00,
2013-08-13 10:27:00,86.4,63.1,30.10,SSE,157,0.0,0.0,46,0.00,,,0.00,WUHU21623XXSP,2013-08-13 17:27:00,
2013-08-13 10:32:00,87.1,63.1,30.10,ENE,67,0.0,0.0,45,0.00,,,0.00,WUHU21623XXSP,2013-08-13 17:32:00,
2013-08-13 10:37:00,87.1,62.5,30.10,SE,135,1.6,1.6,44,0.00,,,0.00,WUHU21623XXSP,2013-08-13 17:37:00,
2013-08-13 10:42:00,87.4,62.7,30.10,NE,45,0.0,1.6,44,0.00,,,0.00,WUHU21623XXSP,2013-08-13 17:42:00,
2013-08-13 10:47:00,87.6,62.2,30.10,NE,45,0.0,0.0,43,0.00,,,0.00,WUHU21623XXSP,2013-08-13 17:47:00,
2013-08-13 10:52:00,86.4,61.8,30.10,NE,45,0.0,0.0,44,0.00,,,0.00,WUHU21623XXSP,2013-08-13 17:52:00,
2013-08-13 10:57:00,87.6,62.9,30.10,WSW,247,0.0,0.0,44,0.00,,,0.00,WUHU21623XXSP,2013-08-13 17:57:00,
2013-08-13 11:02:00,88.0,62.6,30.10,South,180,0.0,0.0,43,0.00,,,0.00,WUHU21623XXSP,2013-08-13 18:02:00,
2013-08-13 11:07:00,88.7,63.2,30.10,South,180,0.0,0.0,43,0.00,,,0.00,WUHU21623XXSP,2013-08-13 18:07:00,
2013-08-13 11:12:00,89.1,62.9,30.10,South,180,1.8,6.0,42,0.00,,,0.00,WUHU21623XXSP,2013-08-13 18:12:00,
2013-08-13 11:17:00,87.4,61.4,30.10,SSW,202,0.0,6.0,42,0.00,,,0.00,WUHU21623XXSP,2013-08-13 18:17:00,
2013-08-13 11:22:00,87.6,62.9,30.10,SSW,202,0.0,1.8,44,0.00,,,0.00,WUHU21623XXSP,2013-08-13 18:22:00,
2013-08-13 11:27:00,87.1,61.8,30.10,South,180,0.0,0.0,43,0.00,,,0.00,WUHU21623XXSP,2013-08-13 18:27:00,
2013-08-13 11:32:00,86.9,61.6,30.09,South,180,0.0,0.0,43,0.00,,,0.00,WUHU21623XXSP,2013-08-13 18:32:00,
2013-08-13 11:37:00,86.2,61.0,30.10,South,180,0.0,0.0,43,0.00,,,0.00,WUHU21623XXSP,2013-08-13 18:37:00,
2013-08-13 11:42:00,85.6,60.4,30.09,WSW,247,0.0,0.0,43,0.00,,,0.00,WUHU21623XXSP,2013-08-13 18:42:00,
2013-08-13 11:47:00,86.7,62.1,30.09,SW,225,0.0,0.0,44,0.00,,,0.00,WUHU21623XXSP,2013-08-13 18:47:00,
2013-08-13 11:52:00,87.1,62.5,30.09,WSW,247,0.0,0.0,44,0.00,,,0.00,WUHU21623XXSP,2013-08-13 18:52:00,
2013-08-13 11:57:00,87.1,60.4,30.09,WSW,247,0.0,0.0,41,0.00,,,0.00,WUHU21623XXSP,2013-08-13 18:57:00,
2013-08-13 12:02:00,86.2,61.0,30.09,WSW,247,0.0,2.7,43,0.00,,,0.00,WUHU21623XXSP,2013-08-13 19:02:00,
2013-08-13 12:07:00,86.5,61.2,30.09,WSW,247,0.0,2.7,43,0.00,,,0.00,WUHU21623XXSP,2013-08-13 19:07:00,
2013-08-13 12:12:00,87.8,62.4,30.09,WSW,247,3.1,3.1,43,0.00,,,0.00,WUHU21623XXSP,2013-08-13 19:12:00,
2013-08-13 12:17:00,87.4,62.7,30.09,WSW,247,0.0,3.1,44,0.00,,,0.00,WUHU21623XXSP,2013-08-13 19:17:00,
2013-08-13 12:22:00,87.4,62.7,30.09,WSW,247,0.0,0.0,44,0.00,,,0.00,WUHU21623XXSP,2013-08-13 19:22:00,
2013-08-13 12:27:00,88.9,63.4,30.09,WSW,247,0.0,0.0,43,0.00,,,0.00,WUHU21623XXSP,2013-08-13 19:27:00,
2013-08-13 12:32:00,90.1,63.8,30.09,WSW,247,0.0,0.0,42,0.00,,,0.00,WUHU21623XXSP,2013-08-13 19:32:00,
2013-08-13 12:37:00,90.3,64.0,30.09,WSW,247,0.0,0.0,42,0.00,,,0.00,WUHU21623XXSP,2013-08-13 19:37:00,
2013-08-13 12:42:00,88.0,62.6,30.09,WSW,247,4.9,6.9,43,0.00,,,0.00,WUHU21623XXSP,2013-08-13 19:42:00,
2013-08-13 12:47:00,86.9,61.6,30.08,WSW,247,0.0,6.9,43,0.00,,,0.00,WUHU21623XXSP,2013-08-13 19:47:00,
2013-08-13 12:52:00,86.0,60.8,30.08,WSW,247,6.7,6.7,43,0.00,,,0.00,WUHU21623XXSP,2013-08-13 19:52:00,
2013-08-13 12:57:00,86.2,61.6,30.08,WSW,247,0.0,6.7,44,0.00,,,0.00,WUHU21623XXSP,2013-08-13 19:57:00,
2013-08-13 13:02:00,87.4,62.7,30.08,WSW,247,0.0,6.7,44,0.00,,,0.00,WUHU21623XXSP,2013-08-13 20:02:00,
2013-08-13 13:07:00,87.6,62.2,30.08,WSW,247,0.0,0.0,43,0.00,,,0.00,WUHU21623XXSP,2013-08-13 20:07:00,
2013-08-13 13:12:00,86.2,61.6,30.08,WSW,247,0.0,0.0,44,0.00,,,0.00,WUHU21623XXSP,2013-08-13 20:12:00,
2013-08-13 13:17:00,85.8,61.3,30.08,WSW,247,6.9,6.9,44,0.00,,,0.00,WUHU21623XXSP,2013-08-13 20:17:00,
2013-08-13 13:22:00,85.6,60.4,30.08,WSW,247,6.0,6.9,43,0.00,,,0.00,WUHU21623XXSP,2013-08-13 20:22:00,
2013-08-13 13:27:00,85.6,60.4,30.08,WSW,247,0.0,6.0,43,0.00,,,0.00,WUHU21623XXSP,2013-08-13 20:27:00,
2013-08-13 13:32:00,86.2,61.0,30.08,WSW,247,0.0,6.0,43,0.00,,,0.00,WUHU21623XXSP,2013-08-13 20:32:00,
2013-08-13 13:37:00,87.4,62.0,30.08,WSW,247,1.6,1.6,43,0.00,,,0.00,WUHU21623XXSP,2013-08-13 20:37:00,
2013-08-13 13:42:00,89.2,63.0,30.08,WSW,247,0.0,1.6,42,0.00,,,0.00,WUHU21623XXSP,2013-08-13 20:42:00,
2013-08-13 13:47:00,89.4,61.0,30.07,WSW,247,7.2,7.2,39,0.00,,,0.00,WUHU21623XXSP,2013-08-13 20:47:00,
2013-08-13 13:52:00,88.2,60.7,30.07,WSW,247,0.0,7.2,40,0.00,,,0.00,WUHU21623XXSP,2013-08-13 20:52:00,
2013-08-13 13:57:00,88.0,60.5,30.07,WSW,247,0.0,3.4,40,0.00,,,0.00,WUHU21623XXSP,2013-08-13 20:57:00,
2013-08-13 14:02:00,88.0,61.9,30.07,WSW,247,0.0,3.4,42,0.00,,,0.00,WUHU21623XXSP,2013-08-13 21:02:00,
2013-08-13 14:07:00,89.1,61.5,30.07,WSW,247,2.9,2.9,40,0.00,,,0.00,WUHU21623XXSP,2013-08-13 21:07:00,
2013-08-13 14:12:00,90.1,61.6,30.07,NNW,337,0.0,2.9,39,0.00,,,0.00,WUHU21623XXSP,2013-08-13 21:12:00,
2013-08-13 14:17:00,90.3,61.8,30.07,NNW,337,1.3,1.3,39,0.00,,,0.00,WUHU21623XXSP,2013-08-13 21:17:00,
2013-08-13 14:22:00,90.5,62.0,30.07,West,270,0.0,1.3,39,0.00,,,0.00,WUHU21623XXSP,2013-08-13 21:22:00,
2013-08-13 14:27:00,90.3,61.0,30.07,SSE,157,0.0,0.0,38,0.00,,,0.00,WUHU21623XXSP,2013-08-13 21:27:00,
2013-08-13 14:32:00,90.0,60.0,30.07,South,180,2.0,2.0,37,0.00,,,0.00,WUHU21623XXSP,2013-08-13 21:32:00,
2013-08-13 14:37:00,88.3,58.5,30.06,South,180,0.0,2.0,37,0.00,,,0.00,WUHU21623XXSP,2013-08-13 21:37:00,
2013-08-13 14:42:00,89.2,60.1,30.06,WSW,247,0.0,0.0,38,0.00,,,0.00,WUHU21623XXSP,2013-08-13 21:42:00,
2013-08-13 14:47:00,89.6,60.4,30.06,SE,135,0.0,0.0,38,0.00,,,0.00,WUHU21623XXSP,2013-08-13 21:47:00,
2013-08-13 14:52:00,89.8,59.8,30.06,ENE,67,0.0,0.0,37,0.00,,,0.00,WUHU21623XXSP,2013-08-13 21:52:00,
2013-08-13 14:57:00,88.9,59.8,30.05,ESE,112,0.0,6.0,38,0.00,,,0.00,WUHU21623XXSP,2013-08-13 21:57:00,
2013-08-13 15:02:00,88.9,59.8,30.05,SSE,157,3.8,6.0,38,0.00,,,0.00,WUHU21623XXSP,2013-08-13 22:02:00,
2013-08-13 15:07:00,88.3,59.3,30.05,South,180,0.0,3.8,38,0.00,,,0.00,WUHU21623XXSP,2013-08-13 22:07:00,
2013-08-13 15:12:00,88.0,59.0,30.05,WSW,247,4.9,4.9,38,0.00,,,0.00,WUHU21623XXSP,2013-08-13 22:12:00,
2013-08-13 15:17:00,88.2,59.9,30.05,WSW,247,0.0,4.9,39,0.00,,,0.00,WUHU21623XXSP,2013-08-13 22:17:00,
2013-08-13 15:22:00,88.9,59.8,30.05,WSW,247,0.0,4.9,38,0.00,,,0.00,WUHU21623XXSP,2013-08-13 22:22:00,
2013-08-13 15:27:00,89.2,59.3,30.05,WSW,247,0.0,0.0,37,0.00,,,0.00,WUHU21623XXSP,2013-08-13 22:27:00,
2013-08-13 15:32:00,89.2,58.5,30.05,WSW,247,4.9,4.9,36,0.00,,,0.00,WUHU21623XXSP,2013-08-13 22:32:00,
2013-08-13 15:37:00,88.9,59.0,30.05,WSW,247,7.2,8.3,37,0.00,,,0.00,WUHU21623XXSP,2013-08-13 22:37:00,
2013-08-13 15:42:00,89.4,59.5,30.05,WSW,247,0.0,8.3,37,0.00,,,0.00,WUHU21623XXSP,2013-08-13 22:42:00,
2013-08-13 15:47:00,90.3,60.3,30.05,WSW,247,0.0,7.2,37,0.00,,,0.00,WUHU21623XXSP,2013-08-13 22:47:00,
2013-08-13 15:52:00,90.1,58.5,30.04,WSW,247,0.0,6.0,35,0.00,,,0.00,WUHU21623XXSP,2013-08-13 22:52:00,
2013-08-13 15:57:00,89.8,58.2,30.04,WSW,247,0.0,6.0,35,0.00,,,0.00,WUHU21623XXSP,2013-08-13 22:57:00,
2013-08-13 16:02:00,90.0,59.2,30.04,WSW,247,0.0,0.0,36,0.00,,,0.00,WUHU21623XXSP,2013-08-13 23:02:00,
2013-08-13 16:07:00,90.9,59.2,30.04,WSW,247,8.1,8.1,35,0.00,,,0.00,WUHU21623XXSP,2013-08-13 23:07:00,
2013-08-13 16:12:00,90.7,59.0,30.04,WSW,247,0.0,8.1,35,0.00,,,0.00,WUHU21623XXSP,2013-08-13 23:12:00,
2013-08-13 16:17:00,90.7,59.0,30.04,WSW,247,0.0,8.1,35,0.00,,,0.00,WUHU21623XXSP,2013-08-13 23:17:00,
2013-08-13 16:22:00,90.3,58.7,30.03,WSW,247,0.0,0.0,35,0.00,,,0.00,WUHU21623XXSP,2013-08-13 23:22:00,
2013-08-13 16:27:00,89.8,56.6,30.03,WSW,247,0.0,0.0,33,0.00,,,0.00,WUHU21623XXSP,2013-08-13 23:27:00,
2013-08-13 16:32:00,89.8,58.2,30.03,WSW,247,0.0,0.0,35,0.00,,,0.00,WUHU21623XXSP,2013-08-13 23:32:00,
2013-08-13 16:37:00,90.3,57.9,30.03,WSW,247,0.0,0.0,34,0.00,,,0.00,WUHU21623XXSP,2013-08-13 23:37:00,
2013-08-13 16:42:00,90.3,57.9,30.02,WSW,247,0.0,0.0,34,0.00,,,0.00,WUHU21623XXSP,2013-08-13 23:42:00,
2013-08-13 16:47:00,90.3,58.7,30.02,WSW,247,0.0,0.0,35,0.00,,,0.00,WUHU21623XXSP,2013-08-13 23:47:00,
2013-08-13 16:50:00,90.0,58.4,30.03,WSW,247,0.0,0.0,35,0.00,,,0.00,WUHU21623XXSP,2013-08-13 23:50:00,
2013-08-13 16:54:00,89.8,59.0,30.03,WSW,247,2.0,2.0,36,0.00,,,0.00,WUHU21623XXSP,2013-08-13 23:54:00,
2013-08-13 17:01:00,90.1,58.5,30.02,WSW,247,0.2,2.0,35,0.00,,,0.00,WUHU21623XXSP,2013-08-14 00:01:00,
2013-08-13 17:05:00,90.1,58.5,30.02,WSW,247,8.5,8.5,35,0.00,,,0.00,WUHU21623XXSP,2013-08-14 00:05:00,
2013-08-13 17:21:00,90.1,58.5,30.01,WSW,247,0.0,0.0,35,0.00,,,0.00,WUHU21623XXSP,2013-08-14 00:21:00,
2013-08-13 17:26:00,90.5,58.9,30.01,WSW,247,0.0,0.0,35,0.00,,,0.00,WUHU21623XXSP,2013-08-14 00:26:00,
2013-08-13 17:31:00,90.3,58.7,30.02,WSW,247,0.0,0.0,35,0.00,,,0.00,WUHU21623XXSP,2013-08-14 00:31:00,
2013-08-13 17:36:00,91.2,59.5,30.02,WSW,247,0.0,0.0,35,0.00,,,0.00,WUHU21623XXSP,2013-08-14 00:36:00,
2013-08-13 17:41:00,91.9,60.1,30.02,WSW,247,0.0,0.0,35,0.00,,,0.00,WUHU21623XXSP,2013-08-14 00:41:00,
2013-08-13 17:46:00,92.3,60.5,30.02,WSW,247,0.0,0.0,35,0.00,,,0.00,WUHU21623XXSP,2013-08-14 00:46:00,
2013-08-13 17:51:00,93.4,60.6,30.02,WSW,247,0.0,0.0,34,0.00,,,0.00,WUHU21623XXSP,2013-08-14 00:51:00,
2013-08-13 17:56:00,93.4,60.6,30.02,WSW,247,0.0,0.0,34,0.00,,,0.00,WUHU21623XXSP,2013-08-14 00:56:00,
2013-08-13 18:01:00,94.1,61.2,30.02,WSW,247,0.0,0.0,34,0.00,,,0.00,WUHU21623XXSP,2013-08-14 01:01:00,
2013-08-13 18:06:00,93.9,61.0,30.02,WSW,247,0.0,0.0,34,0.00,,,0.00,WUHU21623XXSP,2013-08-14 01:06:00,
2013-08-13 18:11:00,94.6,61.6,30.01,WSW,247,0.0,0.0,34,0.00,,,0.00,WUHU21623XXSP,2013-08-14 01:11:00,
2013-08-13 18:16:00,95.4,60.6,30.01,WSW,247,0.0,0.0,32,0.00,,,0.00,WUHU21623XXSP,2013-08-14 01:16:00,
2013-08-13 18:21:00,95.7,60.9,30.01,WSW,247,0.0,0.0,32,0.00,,,0.00,WUHU21623XXSP,2013-08-14 01:21:00,
2013-08-13 18:26:00,95.7,61.8,30.02,WSW,247,0.0,0.0,33,0.00,,,0.00,WUHU21623XXSP,2013-08-14 01:26:00,
2013-08-13 18:31:00,95.0,60.3,30.01,WSW,247,0.0,0.0,32,0.00,,,0.00,WUHU21623XXSP,2013-08-14 01:31:00,
2013-08-13 18:36:00,94.3,59.7,30.01,WSW,247,0.0,0.0,32,0.00,,,0.00,WUHU21623XXSP,2013-08-14 01:36:00,
2013-08-13 18:41:00,93.7,60.0,30.01,WSW,247,0.0,0.0,33,0.00,,,0.00,WUHU21623XXSP,2013-08-14 01:41:00,
2013-08-13 18:46:00,93.6,59.9,30.01,WSW,247,0.0,0.0,33,0.00,,,0.00,WUHU21623XXSP,2013-08-14 01:46:00,
2013-08-13 18:51:00,93.9,61.0,30.01,WSW,247,0.0,0.0,34,0.00,,,0.00,WUHU21623XXSP,2013-08-14 01:51:00,
2013-08-13 18:56:00,94.3,61.4,30.01,WSW,247,0.0,0.0,34,0.00,,,0.00,WUHU21623XXSP,2013-08-14 01:56:00,
2013-08-13 19:01:00,95.2,62.2,30.01,WSW,247,0.0,0.0,34,0.00,,,0.00,WUHU21623XXSP,2013-08-14 02:01:00,
2013-08-13 19:06:00,95.4,62.3,30.01,WSW,247,0.0,0.0,34,0.00,,,0.00,WUHU21623XXSP,2013-08-14 02:06:00,
2013-08-13 19:11:00,94.8,62.7,30.01,WSW,247,0.0,0.0,35,0.00,,,0.00,WUHU21623XXSP,2013-08-14 02:11:00,
2013-08-13 19:16:00,94.1,62.0,30.01,WSW,247,0.0,0.0,35,0.00,,,0.00,WUHU21623XXSP,2013-08-14 02:16:00,
2013-08-13 19:21:00,93.4,61.4,30.01,WSW,247,0.0,0.0,35,0.00,,,0.00,WUHU21623XXSP,2013-08-14 02:21:00,
2013-08-13 19:26:00,92.5,60.6,30.01,WSW,247,0.0,0.0,35,0.00,,,0.00,WUHU21623XXSP,2013-08-14 02:26:00,
2013-08-13 19:31:00,90.1,60.9,30.00,WSW,247,0.0,0.0,38,0.00,,,0.00,WUHU21623XXSP,2013-08-14 02:31:00,
2013-08-13 19:36:00,87.6,58.6,30.01,WSW,247,0.0,0.0,38,0.00,,,0.00,WUHU21623XXSP,2013-08-14 02:36:00,
2013-08-13 19:41:00,86.2,58.1,30.01,WSW,247,0.0,0.0,39,0.00,,,0.00,WUHU21623XXSP,2013-08-14 02:41:00,
2013-08-13 19:46:00,84.0,56.9,30.01,WSW,247,0.0,0.0,40,0.00,,,0.00,WUHU21623XXSP,2013-08-14 02:46:00,
2013-08-13 19:51:00,82.6,56.3,30.01,WSW,247,0.0,0.0,41,0.00,,,0.00,WUHU21623XXSP,2013-08-14 02:51:00,
2013-08-13 19:56:00,81.1,56.3,30.01,WSW,247,0.0,0.0,43,0.00,,,0.00,WUHU21623XXSP,2013-08-14 02:56:00,
2013-08-13 20:01:00,78.6,56.0,30.01,WSW,247,0.0,0.0,46,0.00,,,0.00,WUHU21623XXSP,2013-08-14 03:01:00,
2013-08-13 20:06:00,77.2,55.9,30.01,WSW,247,0.0,0.0,48,0.00,,,0.00,WUHU21623XXSP,2013-08-14 03:06:00,
2013-08-13 20:11:00,76.1,54.3,30.01,WSW,247,0.0,0.0,47,0.00,,,0.00,WUHU21623XXSP,2013-08-14 03:11:00,
2013-08-13 20:16:00,75.0,53.9,30.01,WSW,247,0.0,0.0,48,0.00,,,0.00,WUHU21623XXSP,2013-08-14 03:16:00,
2013-08-13 20:21:00,74.5,52.9,30.01,WSW,247,0.0,0.0,47,0.00,,,0.00,WUHU21623XXSP,2013-08-14 03:21:00,
2013-08-13 20:26:00,74.1,54.2,30.01,WSW,247,0.0,0.0,50,0.00,,,0.00,WUHU21623XXSP,2013-08-14 03:26:00,
2013-08-13 20:31:00,73.0,54.9,30.01,WSW,247,0.0,0.0,53,0.00,,,0.00,WUHU21623XXSP,2013-08-14 03:31:00,
2013-08-13 20:36:00,72.3,54.7,30.01,WSW,247,0.0,0.0,54,0.00,,,0.00,WUHU21623XXSP,2013-08-14 03:36:00,
2013-08-13 20:41:00,71.8,53.8,30.01,WSW,247,0.0,0.0,53,0.00,,,0.00,WUHU21623XXSP,2013-08-14 03:41:00,
2013-08-13 20:46:00,71.2,52.7,30.02,WSW,247,0.0,0.0,52,0.00,,,0.00,WUHU21623XXSP,2013-08-14 03:46:00,
2013-08-13 20:51:00,70.9,52.4,30.02,WSW,247,0.0,0.0,52,0.00,,,0.00,WUHU21623XXSP,2013-08-14 03:51:00,
2013-08-13 20:56:00,70.5,52.5,30.01,WSW,247,0.0,0.0,53,0.00,,,0.00,WUHU21623XXSP,2013-08-14 03:56:00,
2013-08-13 21:01:00,69.6,53.7,30.02,WSW,247,0.0,0.0,57,0.00,,,0.00,WUHU21623XXSP,2013-08-14 04:01:00,
2013-08-13 21:02:00,69.6,53.7,30.02,WSW,247,0.0,0.0,57,0.00,,,0.00,WUHU21623XXSP,2013-08-14 04:02:00,
2013-08-13 21:07:00,69.1,53.8,30.01,WSW,247,0.0,0.0,58,0.00,,,0.00,WUHU21623XXSP,2013-08-14 04:07:00,
2013-08-13 21:12:00,68.7,52.9,30.01,WSW,247,0.0,0.0,57,0.00,,,0.00,WUHU21623XXSP,2013-08-14 04:12:00,
2013-08-13 21:17:00,68.5,52.7,30.02,SW,225,0.0,0.0,57,0.00,,,0.00,WUHU21623XXSP,2013-08-14 04:17:00,
2013-08-13 21:22:00,68.2,52.4,30.01,SW,225,0.0,0.0,57,0.00,,,0.00,WUHU21623XXSP,2013-08-14 04:22:00,
2013-08-13 21:27:00,67.8,52.1,30.01,SW,225,0.0,0.0,57,0.00,,,0.00,WUHU21623XXSP,2013-08-14 04:27:00,
2013-08-13 21:32:00,67.8,52.1,30.02,SW,225,0.0,0.0,57,0.00,,,0.00,WUHU21623XXSP,2013-08-14 04:32:00,
2013-08-13 21:37:00,67.6,51.9,30.01,SW,225,0.0,0.0,57,0.00,,,0.00,WUHU21623XXSP,2013-08-14 04:37:00,
2013-08-13 21:42:00,67.5,53.2,30.01,SW,225,0.0,0.0,60,0.00,,,0.00,WUHU21623XXSP,2013-08-14 04:42:00,
2013-08-13 21:47:00,67.1,53.3,30.01,SW,225,0.0,0.0,61,0.00,,,0.00,WUHU21623XXSP,2013-08-14 04:47:00,
2013-08-13 21:52:00,66.7,53.3,30.02,SW,225,0.0,0.0,62,0.00,,,0.00,WUHU21623XXSP,2013-08-14 04:52:00,
2013-08-13 21:57:00,66.6,53.3,30.02,SW,225,0.0,0.0,62,0.00,,,0.00,WUHU21623XXSP,2013-08-14 04:57:00,
2013-08-13 22:02:00,66.4,52.2,30.02,SW,225,0.0,0.0,60,0.00,,,0.00,WUHU21623XXSP,2013-08-14 05:02:00,
2013-08-13 22:07:00,66.4,51.7,30.02,SW,225,0.0,0.0,59,0.00,,,0.00,WUHU21623XXSP,2013-08-14 05:07:00,
2013-08-13 22:12:00,66.6,51.9,30.02,SW,225,0.0,0.0,59,0.00,,,0.00,WUHU21623XXSP,2013-08-14 05:12:00,
2013-08-13 22:17:00,66.4,51.7,30.02,SW,225,0.0,0.0,59,0.00,,,0.00,WUHU21623XXSP,2013-08-14 05:17:00,
2013-08-13 22:22:00,66.0,51.3,30.02,SW,225,0.0,0.0,59,0.00,,,0.00,WUHU21623XXSP,2013-08-14 05:22:00,
2013-08-13 22:27:00,65.8,51.1,30.02,SW,225,0.0,0.0,59,0.00,,,0.00,WUHU21623XXSP,2013-08-14 05:27:00,
2013-08-13 22:32:00,66.0,51.8,30.01,SW,225,0.0,0.0,60,0.00,,,0.00,WUHU21623XXSP,2013-08-14 05:32:00,
2013-08-13 22:37:00,65.8,52.0,30.01,SW,225,0.0,0.0,61,0.00,,,0.00,WUHU21623XXSP,2013-08-14 05:37:00,
2013-08-13 22:42:00,65.7,52.0,30.01,SW,225,0.0,0.0,61,0.00,,,0.00,WUHU21623XXSP,2013-08-14 05:42:00,
2013-08-13 22:47:00,65.8,52.0,30.01,SW,225,0.0,0.0,61,0.00,,,0.00,WUHU21623XXSP,2013-08-14 05:47:00,
2013-08-13 22:52:00,65.8,52.5,30.01,SW,225,0.0,0.0,62,0.00,,,0.00,WUHU21623XXSP,2013-08-14 05:52:00,
2013-08-13 22:57:00,65.7,52.0,30.01,SW,225,0.0,0.0,61,0.00,,,0.00,WUHU21623XXSP,2013-08-14 05:57:00,
2013-08-13 23:02:00,65.8,52.0,30.01,SW,225,0.0,0.0,61,0.00,,,0.00,WUHU21623XXSP,2013-08-14 06:02:00,
2013-08-13 23:07:00,66.2,52.4,30.01,SW,225,0.0,0.0,61,0.00,,,0.00,WUHU21623XXSP,2013-08-14 06:07:00,
2013-08-13 23:12:00,66.2,52.4,30.01,SW,225,0.0,0.0,61,0.00,,,0.00,WUHU21623XXSP,2013-08-14 06:12:00,
2013-08-13 23:17:00,66.0,52.2,30.01,SW,225,0.0,0.0,61,0.00,,,0.00,WUHU21623XXSP,2013-08-14 06:17:00,
2013-08-13 23:22:00,65.5,52.7,30.01,SW,225,0.0,0.0,63,0.00,,,0.00,WUHU21623XXSP,2013-08-14 06:22:00,
2013-08-13 23:27:00,64.9,52.5,30.01,SW,225,0.0,0.0,64,0.00,,,0.00,WUHU21623XXSP,2013-08-14 06:27:00,
2013-08-13 23:32:00,65.1,52.3,30.01,SW,225,0.0,0.0,63,0.00,,,0.00,WUHU21623XXSP,2013-08-14 06:32:00,
2013-08-13 23:37:00,65.1,52.3,30.01,SW,225,0.0,0.0,63,0.00,,,0.00,WUHU21623XXSP,2013-08-14 06:37:00,
2013-08-13 23:42:00,64.6,52.7,30.00,SW,225,0.0,0.0,65,0.00,,,0.00,WUHU21623XXSP,2013-08-14 06:42:00,
2013-08-13 23:47:00,64.6,52.2,30.01,SW,225,0.0,0.0,64,0.00,,,0.00,WUHU21623XXSP,2013-08-14 06:47:00,
2013-08-13 23:52:00,64.6,52.7,30.00,SW,225,0.0,0.0,65,0.00,,,0.00,WUHU21623XXSP,2013-08-14 06:52:00,
2013-08-13 23:57:00,64.2,52.3,30.01,SW,225,0.0,0.0,65,0.00,,,0.00,WUHU21623XXSP,2013-08-14 06:57:00,